Flight Track Log - Related Links

Times and Time Zones

All times are in EDT time to prevent confusion due to time zone crossing. See the N441R flight status page for this flight to view local times or setup timezone preferences in your user account.

Time Position Orientation Groundspeed Altitude Reporting Facility
EDT Latitude Longitude Course Direction KTS MPH feet Rate Location/Type
Thu 07:10:22 PM 32.7767 -79.8264 North 204 235 5,900  Level Jacksonville Center
Thu 07:11:22 PM 32.8306 -79.8197 North 209 241 7,600 1,700 Climbing Jacksonville Center
Thu 07:12:22 PM 32.8892 -79.8178 North 209 241 9,300 1,700 Climbing Jacksonville Center
Thu 07:13:00 PM 33.0962 -80.0821 344° North  Level FlightAware Approximate
Thu 07:13:22 PM 32.9475 -79.8206 358° North 209 241 11,000  Level Jacksonville Center
Thu 07:14:00 PM 33.1624 -80.0958 351° North  Level FlightAware Approximate
Thu 07:14:22 PM 33.0061 -79.8261 355° North 209 241 12,700  Level Jacksonville Center
Thu 07:15:22 PM 33.0647 -79.8314 356° North 209 241 14,400 1,750 Climbing Jacksonville Center
Thu 07:16:22 PM 33.1233 -79.8344 358° North 209 241 16,200 1,686 Climbing Jacksonville Center
Thu 07:17:23 PM 33.1756 -79.8425 353° North 202 232 17,800 1,600 Climbing Jacksonville Center
Thu 07:18:22 PM 33.2236 -79.8483 354° North 190 219 19,400 1,513 Climbing Jacksonville Center
Thu 07:19:22 PM 33.2656 -79.8494 359° North 173 199 20,800 1,250 Climbing Jacksonville Center
Thu 07:20:22 PM 33.3117 -79.8553 354° North 158 182 21,900 1,050 Climbing Jacksonville Center
Thu 07:21:22 PM 33.3681 -79.8658 351° North 178 205 22,900 1,000 Climbing Jacksonville Center
Thu 07:22:22 PM 33.4331 -79.8786 351° North 207 238 23,900 1,000 Climbing Jacksonville Center
Thu 07:23:22 PM 33.4939 -79.8914 350° North 222 255 24,900 950 Climbing Jacksonville Center
Thu 07:24:22 PM 33.5569 -79.9092 347° North 222 255 25,800 900 Climbing Jacksonville Center
Thu 07:25:22 PM 33.6158 -79.9272 346° North 222 255 26,700 600 Climbing Jacksonville Center
Thu 07:26:22 PM 33.6808 -79.9450 347° North 222 255 27,000 150 Climbing Jacksonville Center
Thu 07:27:22 PM 33.7522 -79.9625 348° North 234 269 27,000  Level Jacksonville Center
Thu 07:28:22 PM 33.8217 -79.9828 346° North 247 284 27,000  Level Jacksonville Center
Thu 07:29:22 PM 33.8908 -80.0006 348° North 253 291 27,000  Level Jacksonville Center
Thu 07:30:22 PM 33.9622 -80.0206 347° North 258 297 27,000  Level Jacksonville Center
Thu 07:31:22 PM 34.0336 -80.0408 347° North 258 297 27,000  Level Jacksonville Center
Thu 07:32:22 PM 34.1031 -80.0586 348° North 258 297 27,000  Level Jacksonville Center
Thu 07:33:22 PM 34.1744 -80.0814 345° North 258 297 27,000 -50 Level Jacksonville Center
Thu 07:34:22 PM 34.2436 -80.0992 348° North 258 297 26,900 -50 Descending Jacksonville Center
Thu 07:35:22 PM 34.3150 -80.1169 348° North 258 297 26,900 50 Level Jacksonville Center
Thu 07:36:22 PM 34.3822 -80.1403 344° North 258 297 27,000 50 Climbing Jacksonville Center
Thu 07:37:22 PM 34.4514 -80.1556 350° North 253 291 27,000  Level Jacksonville Center
Thu 07:38:54 PM 34.5603 -80.1897 346° North 268 308 27,000  Level Atlanta Center
Thu 07:39:54 PM 34.6300 -80.2094 347° North 263 303 27,000  Level Atlanta Center
Thu 07:40:54 PM 34.7036 -80.2286 348° North 263 303 27,000  Level Atlanta Center
Thu 07:41:54 PM 34.7689 -80.2483 346° North 263 303 27,000  Level Atlanta Center
Thu 07:42:54 PM 34.8425 -80.2678 348° North 263 303 27,000  Level Atlanta Center
Thu 07:43:54 PM 34.9183 -80.2897 347° North 263 303 27,000  Level Atlanta Center
Thu 07:44:54 PM 34.9919 -80.3094 348° North 263 303 27,000  Level Atlanta Center
Thu 07:45:54 PM 35.0633 -80.3289 347° North 263 303 27,000  Level Atlanta Center
Thu 07:46:54 PM 35.1372 -80.3511 346° North 263 303 27,000  Level Atlanta Center
Thu 07:47:54 PM 35.2086 -80.3708 347° North 258 297 27,000  Level Atlanta Center
Thu 07:48:54 PM 35.2803 -80.3903 348° North 263 303 27,000  Level Atlanta Center
Thu 07:49:54 PM 35.3581 -80.4125 347° North 263 303 27,000  Level Atlanta Center
Thu 07:50:54 PM 35.4294 -80.4322 347° North 263 303 27,000  Level Atlanta Center
Thu 07:51:54 PM 35.5011 -80.4519 347° North 257 296 27,000  Level Atlanta Center
Thu 07:52:54 PM 35.5706 -80.4744 345° North 262 302 27,000  Level Atlanta Center
Thu 07:53:54 PM 35.6419 -80.4944 347° North 259 298 27,000  Level Atlanta Center
Thu 07:54:54 PM 35.7156 -80.5142 348° North 264 304 27,000  Level Atlanta Center
Thu 07:55:54 PM 35.7872 -80.5342 347° North 264 304 27,000  Level Atlanta Center
Thu 07:56:54 PM 35.8608 -80.5567 346° North 259 298 27,000  Level Atlanta Center
Thu 07:57:54 PM 35.9344 -80.5767 348° North 259 298 27,000  Level Atlanta Center
Thu 07:58:54 PM 36.0100 -80.5989 347° North 271 312 27,000  Level Atlanta Center
Thu 07:59:54 PM 36.0817 -80.6192 347° North 276 318 27,000  Level Atlanta Center
Thu 08:00:54 PM 36.1572 -80.6417 346° North 276 318 27,000  Level Atlanta Center
Thu 08:01:54 PM 36.2244 -80.6594 348° North 276 318 27,000 -400 Level Atlanta Center
Thu 08:02:54 PM 36.2981 -80.6819 346° North 271 312 26,200 -1,000 Descending Atlanta Center
Thu 08:03:54 PM 36.3781 -80.7044 347° North 284 327 25,000 -1,250 Descending Atlanta Center
Thu 08:04:54 PM 36.4578 -80.7269 347° North 284 327 23,700 -1,184 Descending Atlanta Center
Thu 08:06:26 PM 36.5733 -80.7617 346° North 293 337 22,000 -1,208 Descending Indianapolis Center
Thu 08:07:28 PM 36.6644 -80.7875 347° North 289 333 20,600 -1,258 Descending Indianapolis Center
Thu 08:08:30 PM 36.7406 -80.8094 347° North 288 331 19,400 -1,171 Descending Indianapolis Center
Thu 08:09:31 PM 36.8150 -80.8314 347° North 283 326 18,200 -1,122 Descending Indianapolis Center
Thu 08:10:33 PM 36.9022 -80.8564 347° North 276 318 17,100 -1,113 Descending Indianapolis Center
Thu 08:11:35 PM 36.9733 -80.8778 346° North 271 312 15,900 -1,171 Descending Indianapolis Center
Thu 08:12:36 PM 37.0464 -80.8997 347° North 275 316 14,700 -1,122 Descending Indianapolis Center
Thu 08:13:38 PM 37.1197 -80.9208 347° North 276 318 13,600 -1,210 Descending Indianapolis Center
Thu 08:14:40 PM 37.2069 -80.9461 347° North 277 319 12,200 -1,268 Descending Indianapolis Center
Thu 08:15:41 PM 37.2808 -80.9681 347° North 278 320 11,000 -1,171 Descending Indianapolis Center
Thu 08:16:43 PM 37.3531 -80.9917 345° North 275 316 9,800 -1,113 Descending Indianapolis Center
Thu 08:17:45 PM 37.4256 -81.0133 347° North 275 316 8,700 -1,065 Descending Indianapolis Center

Login

Don't have an account? Register now (free) for customized features, flight alerts, and more!